»·PEaware :: N4121T KEYW-KSPG

N4121T :: KEYW-KSPG

FLIGHT INFORMATION

Flight Status: Arrived
Operator: Privately registered:
United States
More flights under this callsign
Pilot: Ulli W. (2180)
Aircraft: BEECH AIRCRAFT BARON
(BE58)
More flights by this aircraft type
Origin: KEYW Key West Intl
United States
Destination: KSPG Whitted
United States
More flights between these airports :: More routes between these airports
Route:
File this flight plan on PilotEdge
Remarks:
Altitude:
(Current/Filed)
4,500ft
Speed:
(Current/Filed)
160kts
Departed: 20-Sep-15 05:54 AM
Arrived: 20-Sep-15 07:13 AM
Distance/Time
Traveled:
198nm/1:19
Distance/Time
To Go:
Arrived

Flight Plot

Page will automatically refresh every two minutes.


Map Options




Map Legend


Flown Route
Filed Route
Departure Airport
Arrival Airport
Navaid (VOR, NDB)
Fix

Horizontal Profiles

Position Reports

Time Latitude Longitude Heading Altitude Ground
Speed
20-Sep-15 06:05 24.555858 -81.752565 348 3ft 11kts
20-Sep-15 06:06 24.556184 -81.752988 267 3ft 16kts
20-Sep-15 06:07 24.558667 -81.782256 308 1000ft 115kts
20-Sep-15 06:08 24.588580 -81.785907 35 2328ft 109kts
20-Sep-15 06:09 24.609585 -81.763547 44 3395ft 104kts
20-Sep-15 06:10 24.637714 -81.732814 44 3411ft 169kts
20-Sep-15 06:11 24.672807 -81.694682 44 3403ft 182kts
20-Sep-15 06:12 24.709418 -81.654966 44 3403ft 187kts
20-Sep-15 06:13 24.746772 -81.614475 44 3402ft 189kts
20-Sep-15 06:14 24.784427 -81.573699 44 3402ft 190kts
20-Sep-15 06:15 24.822074 -81.532967 44 3402ft 190kts
20-Sep-15 06:16 24.859805 -81.492180 44 3402ft 190kts
20-Sep-15 06:17 24.897491 -81.451479 44 3402ft 190kts
20-Sep-15 06:18 24.935345 -81.410632 44 3402ft 190kts
20-Sep-15 06:19 24.973191 -81.369830 44 3402ft 190kts
20-Sep-15 06:20 25.013521 -81.333184 25 3403ft 189kts
20-Sep-15 06:21 25.060734 -81.307384 24 3402ft 189kts
20-Sep-15 06:22 25.111672 -81.292825 11 3402ft 189kts
20-Sep-15 06:23 25.163287 -81.286843 356 3402ft 187kts
20-Sep-15 06:24 25.215401 -81.287986 356 3402ft 187kts
20-Sep-15 06:25 25.267613 -81.289145 356 3402ft 187kts
20-Sep-15 06:26 25.319828 -81.290315 356 3402ft 187kts
20-Sep-15 06:27 25.371977 -81.291493 356 3402ft 187kts
20-Sep-15 06:28 25.424111 -81.292682 356 3402ft 187kts
20-Sep-15 06:29 25.476280 -81.293882 356 3402ft 187kts
20-Sep-15 06:30 25.528466 -81.295094 356 3402ft 187kts
20-Sep-15 06:31 25.580654 -81.296345 354 3401ft 187kts
20-Sep-15 06:32 25.631297 -81.308516 344 3402ft 186kts
20-Sep-15 06:33 25.681858 -81.321437 344 3402ft 186kts
20-Sep-15 06:34 25.726968 -81.346515 325 3398ft 184kts
20-Sep-15 06:35 25.769990 -81.375938 325 3403ft 184kts
20-Sep-15 06:36 25.813261 -81.405531 325 3401ft 184kts
20-Sep-15 06:37 25.849012 -81.429979 325 3401ft 184kts
20-Sep-15 06:38 25.892129 -81.459462 325 3402ft 184kts
20-Sep-15 06:39 25.935047 -81.488806 325 3402ft 184kts
20-Sep-15 06:40 25.977838 -81.518062 325 3400ft 184kts
20-Sep-15 06:41 26.020602 -81.547298 325 3400ft 184kts
20-Sep-15 06:42 26.068834 -81.562953 340 3402ft 185kts
20-Sep-15 06:43 26.115130 -81.585767 330 3401ft 184kts
20-Sep-15 06:44 26.159778 -81.612704 328 3403ft 184kts
20-Sep-15 06:45 26.200536 -81.638062 330 3330ft 186kts
20-Sep-15 06:46 26.243788 -81.664884 330 3322ft 183kts
20-Sep-15 06:47 26.285895 -81.691111 330 3324ft 182kts
20-Sep-15 06:48 26.327396 -81.716993 331 3327ft 182kts
20-Sep-15 06:49 26.361754 -81.738437 331 3329ft 181kts
20-Sep-15 06:50 26.401686 -81.763379 331 3331ft 181kts
20-Sep-15 06:51 26.442735 -81.789030 331 3331ft 181kts
20-Sep-15 06:52 26.482940 -81.814181 331 3327ft 181kts
20-Sep-15 06:53 26.523565 -81.839616 332 3324ft 181kts
20-Sep-15 06:54 26.562346 -81.863915 332 3322ft 182kts
20-Sep-15 06:55 26.600649 -81.887932 332 3322ft 182kts
20-Sep-15 06:56 26.636963 -81.910722 332 3325ft 182kts
20-Sep-15 06:57 26.673736 -81.933817 332 3329ft 181kts
20-Sep-15 06:58 26.710744 -81.957078 332 3334ft 181kts
20-Sep-15 06:59 26.748935 -81.981099 332 3341ft 181kts
20-Sep-15 07:00 26.786251 -82.004587 332 3345ft 181kts
20-Sep-15 07:01 26.825692 -82.029432 332 3350ft 181kts
20-Sep-15 07:02 26.865935 -82.054802 332 3351ft 181kts
20-Sep-15 07:03 26.907828 -82.081235 332 3352ft 181kts
20-Sep-15 07:04 26.947527 -82.106262 332 3352ft 181kts
20-Sep-15 07:05 26.987307 -82.131214 332 3352ft 181kts
20-Sep-15 07:06 27.027189 -82.156411 332 3351ft 181kts
20-Sep-15 07:07 27.071159 -82.184243 332 3352ft 181kts
20-Sep-15 07:08 27.115198 -82.212117 332 3351ft 182kts
20-Sep-15 07:09 27.158486 -82.239599 332 3350ft 182kts
20-Sep-15 07:10 27.200050 -82.265946 332 2836ft 201kts
20-Sep-15 07:11 27.245314 -82.294706 331 1769ft 207kts
20-Sep-15 07:12 27.292436 -82.324708 331 931ft 197kts
20-Sep-15 07:13 27.336376 -82.352695 331 936ft 187kts
20-Sep-15 07:14 27.381495 -82.381461 331 932ft 186kts
20-Sep-15 07:15 27.424986 -82.409197 331 931ft 182kts
20-Sep-15 07:16 27.465498 -82.435060 331 932ft 179kts
20-Sep-15 07:17 27.506209 -82.461067 331 931ft 178kts
20-Sep-15 07:18 27.548325 -82.487953 332 932ft 179kts
20-Sep-15 07:19 27.588439 -82.513663 331 933ft 179kts
20-Sep-15 07:20 27.629086 -82.539697 331 933ft 180kts
20-Sep-15 07:21 27.667453 -82.564290 331 932ft 180kts
20-Sep-15 07:22 27.700457 -82.594173 310 933ft 176kts
20-Sep-15 07:23 27.720721 -82.620564 325 573ft 112kts
20-Sep-15 07:24 27.744400 -82.626992 12 341ft 103kts
20-Sep-15 07:25 27.764340 -82.624882 359 8ft 64kts
20-Sep-15 07:26 27.764238 -82.630180 240 8ft 32kts
20-Sep-15 07:27 27.762902 -82.632635 220 8ft 0kts
20-Sep-15 07:28 27.762902 -82.632635 220 8ft 0kts
20-Sep-15 07:29 27.762902 -82.632635 220 8ft 0kts
20-Sep-15 07:30 27.762902 -82.632635 220 8ft 0kts
20-Sep-15 07:31 27.762902 -82.632635 220 8ft 0kts
20-Sep-15 07:32 27.762902 -82.632635 220 8ft 0kts
20-Sep-15 07:33 27.762902 -82.632635 220 8ft 0kts
20-Sep-15 07:34 27.762902 -82.632635 220 8ft 0kts
20-Sep-15 07:35 27.762902 -82.632635 220 8ft 0kts
20-Sep-15 07:36 27.762902 -82.632635 220 8ft 0kts
20-Sep-15 07:37 27.762902 -82.632635 220 8ft 0kts
20-Sep-15 07:38 27.762902 -82.632635 220 8ft 0kts
20-Sep-15 07:39 27.762902 -82.632635 220 8ft 0kts
20-Sep-15 07:40 27.762902 -82.632635 220 8ft 0kts

Navigation Log

Ident Type
Flight plan parsing failed, navigation log unavailable